Flight Track Log - Related Links

Times and Time Zones

All times are in EST time to prevent confusion due to time zone crossing. See the FIN666 flight status page for this flight to view local times or setup timezone preferences in your user account.

Time Position Orientation Groundspeed Altitude Reporting Facility
EST Latitude Longitude Course Direction KTS MPH feet Rate Location/Type
Sat 07:26:00 AM 55.8420 13.1192 49° Northeast  Level Estimated
Sat 07:27:00 AM 55.9164 13.2747 50° Northeast  Level Estimated
Sat 07:28:00 AM 55.9905 13.4309 50° Northeast  Level Estimated
Sat 07:29:00 AM 56.0624 13.5833 50° Northeast  Level Estimated
Sat 07:30:00 AM 56.1340 13.7363 50° Northeast  Level Estimated
Sat 07:31:00 AM 56.2055 13.8899 50° Northeast  Level Estimated
Sat 07:32:00 AM 56.2768 14.0440 50° Northeast  Level Estimated
Sat 07:33:00 AM 56.3479 14.1987 50° Northeast  Level Estimated
Sat 07:34:00 AM 56.4189 14.3540 50° Northeast  Level Estimated
Sat 07:35:00 AM 56.4896 14.5098 51° Northeast  Level Estimated
Sat 07:36:00 AM 56.5601 14.6663 51° Northeast  Level Estimated
Sat 07:37:00 AM 56.6304 14.8233 51° Northeast  Level Estimated
Sat 07:38:00 AM 56.7006 14.9809 51° Northeast  Level Estimated
Sat 07:39:00 AM 56.7705 15.1391 51° Northeast  Level Estimated
Sat 07:40:00 AM 56.8402 15.2979 51° Northeast  Level Estimated
Sat 07:41:00 AM 56.9098 15.4573 51° Northeast  Level Estimated
Sat 07:42:00 AM 56.9791 15.6172 51° Northeast  Level Estimated
Sat 07:43:00 AM 57.0482 15.7778 52° Northeast  Level Estimated
Sat 07:44:00 AM 57.1171 15.9390 52° Northeast  Level Estimated
Sat 07:45:00 AM 57.1858 16.1007 52° Northeast  Level Estimated
Sat 07:46:00 AM 57.2543 16.2631 52° Northeast  Level Estimated
Sat 07:47:00 AM 57.3246 16.4308 52° Northeast  Level Estimated
Sat 07:48:00 AM 57.3946 16.5990 52° Northeast  Level Estimated
Sat 07:49:00 AM 57.4644 16.7680 52° Northeast  Level Estimated
Sat 07:50:00 AM 57.5339 16.9375 53° Northeast  Level Estimated
Sat 07:51:00 AM 57.6033 17.1077 53° Northeast  Level Estimated
Sat 07:52:00 AM 57.6724 17.2786 53° Northeast  Level Estimated
Sat 07:53:00 AM 57.7412 17.4501 53° Northeast  Level Estimated
Sat 07:54:00 AM 57.8099 17.6223 53° Northeast  Level Estimated
Sat 07:55:00 AM 57.8783 17.7951 53° Northeast  Level Estimated
Sat 07:56:00 AM 57.9465 17.9686 53° Northeast  Level Estimated
Sat 07:57:00 AM 58.0144 18.1427 54° Northeast  Level Estimated
Sat 07:58:00 AM 58.0821 18.3175 54° Northeast  Level Estimated
Sat 07:59:00 AM 58.1495 18.4930 54° Northeast  Level Estimated
Sat 08:00:00 AM 58.2167 18.6691 54° Northeast  Level Estimated
Sat 08:01:00 AM 58.2837 18.8459 54° Northeast  Level Estimated
Sat 08:02:00 AM 58.3504 19.0234 54° Northeast  Level Estimated
Sat 08:03:00 AM 58.4169 19.2015 54° Northeast  Level Estimated
Sat 08:04:00 AM 58.4831 19.3803 55° Northeast  Level Estimated
Sat 08:05:00 AM 58.5491 19.5598 55° Northeast  Level Estimated
Sat 08:06:00 AM 58.6148 19.7400 55° Northeast  Level Estimated
Sat 08:07:00 AM 58.6803 19.9208 55° Northeast  Level Estimated
Sat 08:08:00 AM 58.7455 20.1023 55° Northeast  Level Estimated
Sat 08:09:00 AM 58.8105 20.2845 55° Northeast  Level Estimated
Sat 08:10:00 AM 58.8752 20.4674 56° Northeast  Level Estimated
Sat 08:11:00 AM 58.9397 20.6509 56° Northeast  Level Estimated
Sat 08:12:00 AM 59.0039 20.8352 56° Northeast  Level Estimated
Sat 08:13:00 AM 59.0678 21.0201 56° Northeast  Level Estimated
Sat 08:14:00 AM 59.1315 21.2057 56° Northeast  Level Estimated
Sat 08:15:00 AM 59.1949 21.3920 56° Northeast  Level Estimated
Sat 08:16:00 AM 59.2580 21.5790 57° Northeast  Level Estimated
Sat 08:17:00 AM 59.3209 21.7667 57° Northeast  Level Estimated
Sat 08:18:00 AM 59.3834 21.9551 57° Northeast  Level Estimated
Sat 08:19:00 AM 59.4458 22.1442 57° Northeast  Level Estimated
Sat 08:20:00 AM 59.5078 22.3340 57° Northeast  Level Estimated
Sat 08:21:00 AM 59.5695 22.5245 57° Northeast  Level Estimated
Sat 08:22:00 AM 59.6310 22.7157 57° Northeast  Level Estimated
Sat 08:23:00 AM 59.6922 22.9075 58° Northeast  Level Estimated
Sat 08:24:00 AM 59.7532 23.1001 58° Northeast  Level Estimated
Sat 08:25:00 AM 59.8138 23.2934 58° Northeast  Level Estimated
Sat 08:26:00 AM 59.8742 23.4874 58° Northeast  Level Estimated
Sat 08:27:00 AM 59.9342 23.6821 58° Northeast  Level Estimated
Sat 08:28:00 AM 59.9940 23.8775 58° Northeast  Level Estimated
Sat 08:29:00 AM 60.0535 24.0736 59° Northeast  Level Estimated
Sat 08:30:00 AM 60.1127 24.2704 59° Northeast  Level Estimated
Sat 08:31:00 AM 60.1716 24.4679 59° Northeast  Level Estimated
Sat 08:32:00 AM 60.2303 24.6661 59° Northeast  Level Estimated
Sat 08:33:00 AM 60.2886 24.8650 59° Northeast  Level Estimated
Sat 08:34:00 AM 60.3172 24.9633 60° Northeast  Level Estimated
Sat 08:35:00 AM 60.3172 24.9633 37° Northeast  Level Estimated
Sat 08:36:00 AM 60.3172 24.9633 37° Northeast  Level Estimated
Sat 08:37:00 AM 60.3172 24.9633 37° Northeast  Level Estimated
Sat 08:38:00 AM 60.3172 24.9633 37° Northeast  Level Estimated
Sat 08:39:00 AM 60.3172 24.9633 37° Northeast  Level Estimated
Sat 08:40:00 AM 60.3172 24.9633 37° Northeast  Level Estimated
Sat 08:41:00 AM 60.3172 24.9633 37° Northeast  Level Estimated
Sat 08:42:00 AM 60.3172 24.9633 37° Northeast  Level Estimated
Sat 08:43:00 AM 60.3172 24.9633 37° Northeast  Level Estimated
Sat 08:44:00 AM 60.3172 24.9633 37° Northeast  Level Estimated
Sat 08:45:00 AM 60.3172 24.9633 37° Northeast  Level Estimated
Sat 08:46:00 AM 60.3172 24.9633 37° Northeast  Level Estimated
Sat 08:47:00 AM 60.3172 24.9633 37° Northeast  Level Estimated
Sat 08:48:00 AM 60.3172 24.9633 37° Northeast  Level Estimated

Login

Don't have an account? Register now (free) for customized features, flight alerts, and more!